sensor_id;sensor_type;location;lat;lon;timestamp;pressure;altitude;pressure_sealevel;temperature;humidity
62057;BME280;48016;50.284;18.860;2024-02-21T00:02:20;98809.91;;;4.83;87.85
62057;BME280;48016;50.284;18.860;2024-02-21T00:04:46;98806.27;;;4.78;87.85
62057;BME280;48016;50.284;18.860;2024-02-21T00:07:12;98811.21;;;4.74;87.94
62057;BME280;48016;50.284;18.860;2024-02-21T00:09:38;98812.94;;;4.73;88.04
62057;BME280;48016;50.284;18.860;2024-02-21T00:12:04;98813.23;;;4.73;88.02
62057;BME280;48016;50.284;18.860;2024-02-21T00:14:31;98811.20;;;4.72;88.18
62057;BME280;48016;50.284;18.860;2024-02-21T00:16:57;98809.39;;;4.72;88.15
62057;BME280;48016;50.284;18.860;2024-02-21T00:19:23;98814.14;;;4.73;88.17
62057;BME280;48016;50.284;18.860;2024-02-21T00:21:48;98802.23;;;4.72;88.27
62057;BME280;48016;50.284;18.860;2024-02-21T00:24:14;98801.15;;;4.73;88.33
62057;BME280;48016;50.284;18.860;2024-02-21T00:26:40;98798.70;;;4.74;88.34
62057;BME280;48016;50.284;18.860;2024-02-21T00:29:06;98794.64;;;4.77;88.35
62057;BME280;48016;50.284;18.860;2024-02-21T00:31:32;98790.44;;;4.79;88.48
62057;BME280;48016;50.284;18.860;2024-02-21T00:33:58;98787.24;;;4.83;88.56
62057;BME280;48016;50.284;18.860;2024-02-21T00:36:24;98791.03;;;4.87;88.43
62057;BME280;48016;50.284;18.860;2024-02-21T00:38:50;98789.38;;;4.87;88.31
62057;BME280;48016;50.284;18.860;2024-02-21T00:41:15;98781.55;;;4.89;88.42
62057;BME280;48016;50.284;18.860;2024-02-21T00:43:41;98779.23;;;4.91;88.42
62057;BME280;48016;50.284;18.860;2024-02-21T00:46:08;98774.78;;;4.90;88.31
62057;BME280;48016;50.284;18.860;2024-02-21T00:48:34;98775.40;;;4.90;88.30
62057;BME280;48016;50.284;18.860;2024-02-21T00:51:00;98774.90;;;4.89;88.34
62057;BME280;48016;50.284;18.860;2024-02-21T00:53:26;98773.34;;;4.92;88.34
62057;BME280;48016;50.284;18.860;2024-02-21T00:55:51;98770.25;;;4.92;88.35
62057;BME280;48016;50.284;18.860;2024-02-21T00:58:17;98772.43;;;4.92;88.26
62057;BME280;48016;50.284;18.860;2024-02-21T01:00:43;98768.98;;;4.91;88.28
62057;BME280;48016;50.284;18.860;2024-02-21T01:03:09;98773.26;;;4.91;88.23
62057;BME280;48016;50.284;18.860;2024-02-21T01:05:35;98772.15;;;4.91;88.31
62057;BME280;48016;50.284;18.860;2024-02-21T01:08:01;98770.33;;;4.93;88.24
62057;BME280;48016;50.284;18.860;2024-02-21T01:10:27;98766.70;;;4.92;88.21
62057;BME280;48016;50.284;18.860;2024-02-21T01:12:53;98764.98;;;4.89;88.16
62057;BME280;48016;50.284;18.860;2024-02-21T01:15:19;98767.73;;;4.87;88.28
62057;BME280;48016;50.284;18.860;2024-02-21T01:17:45;98768.15;;;4.85;88.23
62057;BME280;48016;50.284;18.860;2024-02-21T01:20:11;98764.07;;;4.82;88.29
62057;BME280;48016;50.284;18.860;2024-02-21T01:22:37;98762.26;;;4.81;88.27
62057;BME280;48016;50.284;18.860;2024-02-21T01:25:03;98758.73;;;4.82;88.41
62057;BME280;48016;50.284;18.860;2024-02-21T01:27:29;98760.08;;;4.82;88.38
62057;BME280;48016;50.284;18.860;2024-02-21T01:29:55;98757.52;;;4.83;88.39
62057;BME280;48016;50.284;18.860;2024-02-21T01:32:22;98755.09;;;4.84;88.43
62057;BME280;48016;50.284;18.860;2024-02-21T01:34:50;98752.70;;;4.83;88.41
62057;BME280;48016;50.284;18.860;2024-02-21T01:37:16;98752.73;;;4.83;88.40
62057;BME280;48016;50.284;18.860;2024-02-21T01:39:42;98747.64;;;4.83;88.41
62057;BME280;48016;50.284;18.860;2024-02-21T01:42:08;98744.12;;;4.81;88.41
62057;BME280;48016;50.284;18.860;2024-02-21T01:44:34;98742.64;;;4.81;88.47
62057;BME280;48016;50.284;18.860;2024-02-21T01:47:02;98741.47;;;4.82;88.40
62057;BME280;48016;50.284;18.860;2024-02-21T01:49:28;98736.95;;;4.81;88.41
62057;BME280;48016;50.284;18.860;2024-02-21T01:51:54;98731.67;;;4.79;88.36
62057;BME280;48016;50.284;18.860;2024-02-21T01:54:20;98731.88;;;4.79;88.37
62057;BME280;48016;50.284;18.860;2024-02-21T01:56:47;98734.65;;;4.78;88.26
62057;BME280;48016;50.284;18.860;2024-02-21T01:59:15;98733.70;;;4.77;88.14
62057;BME280;48016;50.284;18.860;2024-02-21T02:01:41;98734.69;;;4.74;88.16
62057;BME280;48016;50.284;18.860;2024-02-21T02:04:08;98725.95;;;4.72;88.24
62057;BME280;48016;50.284;18.860;2024-02-21T02:06:34;98728.91;;;4.70;88.26
62057;BME280;48016;50.284;18.860;2024-02-21T02:09:00;98727.10;;;4.71;88.28
62057;BME280;48016;50.284;18.860;2024-02-21T02:11:26;98727.52;;;4.70;88.34
62057;BME280;48016;50.284;18.860;2024-02-21T02:13:52;98728.15;;;4.69;88.25
62057;BME280;48016;50.284;18.860;2024-02-21T02:16:18;98727.81;;;4.69;88.30
62057;BME280;48016;50.284;18.860;2024-02-21T02:18:44;98720.73;;;4.69;88.38
62057;BME280;48016;50.284;18.860;2024-02-21T02:21:14;98719.08;;;4.68;88.34
62057;BME280;48016;50.284;18.860;2024-02-21T02:23:46;98710.66;;;4.68;88.49
62057;BME280;48016;50.284;18.860;2024-02-21T02:26:12;98710.42;;;4.68;88.38
62057;BME280;48016;50.284;18.860;2024-02-21T02:28:38;98708.40;;;4.69;88.45
62057;BME280;48016;50.284;18.860;2024-02-21T02:31:03;98708.77;;;4.70;88.48
62057;BME280;48016;50.284;18.860;2024-02-21T02:33:29;98707.61;;;4.71;88.39
62057;BME280;48016;50.284;18.860;2024-02-21T02:35:55;98706.30;;;4.72;88.41
62057;BME280;48016;50.284;18.860;2024-02-21T02:38:21;98701.11;;;4.72;88.27
62057;BME280;48016;50.284;18.860;2024-02-21T02:40:47;98704.98;;;4.70;88.26
62057;BME280;48016;50.284;18.860;2024-02-21T02:43:14;98698.27;;;4.71;88.38
62057;BME280;48016;50.284;18.860;2024-02-21T02:45:39;98696.27;;;4.71;88.35
62057;BME280;48016;50.284;18.860;2024-02-21T02:48:06;98695.38;;;4.70;88.28
62057;BME280;48016;50.284;18.860;2024-02-21T02:50:32;98697.64;;;4.68;88.30
62057;BME280;48016;50.284;18.860;2024-02-21T02:52:58;98699.88;;;4.67;88.39
62057;BME280;48016;50.284;18.860;2024-02-21T02:55:24;98700.48;;;4.67;88.38
62057;BME280;48016;50.284;18.860;2024-02-21T02:57:50;98697.27;;;4.65;88.29
62057;BME280;48016;50.284;18.860;2024-02-21T03:00:16;98692.20;;;4.63;88.34
62057;BME280;48016;50.284;18.860;2024-02-21T03:02:43;98694.39;;;4.60;88.35
62057;BME280;48016;50.284;18.860;2024-02-21T03:05:13;98697.16;;;4.58;88.51
62057;BME280;48016;50.284;18.860;2024-02-21T03:07:43;98696.37;;;4.59;88.55
62057;BME280;48016;50.284;18.860;2024-02-21T03:10:10;98689.45;;;4.60;88.51
62057;BME280;48016;50.284;18.860;2024-02-21T03:12:36;98686.52;;;4.56;88.44
62057;BME280;48016;50.284;18.860;2024-02-21T03:15:02;98688.38;;;4.56;88.57
62057;BME280;48016;50.284;18.860;2024-02-21T03:17:28;98687.19;;;4.56;88.70
62057;BME280;48016;50.284;18.860;2024-02-21T03:19:55;98689.08;;;4.56;88.57
62057;BME280;48016;50.284;18.860;2024-02-21T03:22:24;98683.02;;;4.56;88.58
62057;BME280;48016;50.284;18.860;2024-02-21T03:24:50;98680.98;;;4.56;88.58
62057;BME280;48016;50.284;18.860;2024-02-21T03:27:16;98678.61;;;4.54;88.63
62057;BME280;48016;50.284;18.860;2024-02-21T03:29:42;98680.10;;;4.53;88.59
62057;BME280;48016;50.284;18.860;2024-02-21T03:32:09;98680.97;;;4.52;88.64
62057;BME280;48016;50.284;18.860;2024-02-21T03:34:35;98680.59;;;4.50;88.64
62057;BME280;48016;50.284;18.860;2024-02-21T03:37:01;98684.09;;;4.49;88.59
62057;BME280;48016;50.284;18.860;2024-02-21T03:39:27;98688.46;;;4.47;88.65
62057;BME280;48016;50.284;18.860;2024-02-21T03:41:53;98680.19;;;4.46;88.68
62057;BME280;48016;50.284;18.860;2024-02-21T03:44:19;98680.28;;;4.44;88.68
62057;BME280;48016;50.284;18.860;2024-02-21T03:46:45;98679.67;;;4.44;88.75
62057;BME280;48016;50.284;18.860;2024-02-21T03:49:11;98681.75;;;4.44;88.78
62057;BME280;48016;50.284;18.860;2024-02-21T03:51:37;98678.86;;;4.43;88.77
62057;BME280;48016;50.284;18.860;2024-02-21T03:54:03;98677.92;;;4.42;88.77
62057;BME280;48016;50.284;18.860;2024-02-21T03:56:29;98680.73;;;4.40;88.79
62057;BME280;48016;50.284;18.860;2024-02-21T03:58:55;98678.41;;;4.37;88.80
62057;BME280;48016;50.284;18.860;2024-02-21T04:01:21;98674.83;;;4.34;88.95
62057;BME280;48016;50.284;18.860;2024-02-21T04:03:47;98680.48;;;4.31;88.93
62057;BME280;48016;50.284;18.860;2024-02-21T04:06:13;98679.03;;;4.29;89.04
62057;BME280;48016;50.284;18.860;2024-02-21T04:08:38;98671.95;;;4.29;88.92
62057;BME280;48016;50.284;18.860;2024-02-21T04:11:05;98677.46;;;4.29;89.11
62057;BME280;48016;50.284;18.860;2024-02-21T04:13:30;98674.42;;;4.31;89.23
62057;BME280;48016;50.284;18.860;2024-02-21T04:15:56;98675.16;;;4.32;89.17
62057;BME280;48016;50.284;18.860;2024-02-21T04:18:22;98676.83;;;4.35;89.29
62057;BME280;48016;50.284;18.860;2024-02-21T04:20:48;98676.93;;;4.40;89.30
62057;BME280;48016;50.284;18.860;2024-02-21T04:23:14;98682.16;;;4.44;89.32
62057;BME280;48016;50.284;18.860;2024-02-21T04:25:40;98677.84;;;4.46;89.33
62057;BME280;48016;50.284;18.860;2024-02-21T04:28:06;98674.84;;;4.49;89.36
62057;BME280;48016;50.284;18.860;2024-02-21T04:30:32;98674.74;;;4.51;89.31
62057;BME280;48016;50.284;18.860;2024-02-21T04:32:58;98668.77;;;4.53;89.24
62057;BME280;48016;50.284;18.860;2024-02-21T04:35:24;98666.13;;;4.54;89.26
62057;BME280;48016;50.284;18.860;2024-02-21T04:37:50;98660.54;;;4.55;89.22
62057;BME280;48016;50.284;18.860;2024-02-21T04:40:16;98653.98;;;4.52;89.10
62057;BME280;48016;50.284;18.860;2024-02-21T04:42:42;98650.82;;;4.49;89.12
62057;BME280;48016;50.284;18.860;2024-02-21T04:45:09;98647.77;;;4.48;89.24
62057;BME280;48016;50.284;18.860;2024-02-21T04:47:35;98653.58;;;4.49;89.20
62057;BME280;48016;50.284;18.860;2024-02-21T04:50:01;98649.46;;;4.50;89.26
62057;BME280;48016;50.284;18.860;2024-02-21T04:52:27;98644.42;;;4.49;89.06
62057;BME280;48016;50.284;18.860;2024-02-21T04:54:53;98647.31;;;4.48;89.06
62057;BME280;48016;50.284;18.860;2024-02-21T04:57:19;98644.77;;;4.47;89.04
62057;BME280;48016;50.284;18.860;2024-02-21T04:59:45;98635.98;;;4.47;89.08
62057;BME280;48016;50.284;18.860;2024-02-21T05:02:11;98637.80;;;4.46;88.97
62057;BME280;48016;50.284;18.860;2024-02-21T05:04:37;98634.14;;;4.42;88.97
62057;BME280;48016;50.284;18.860;2024-02-21T05:07:04;98626.48;;;4.40;88.96
62057;BME280;48016;50.284;18.860;2024-02-21T05:09:30;98632.36;;;4.36;89.00
62057;BME280;48016;50.284;18.860;2024-02-21T05:11:57;98638.55;;;4.35;89.06
62057;BME280;48016;50.284;18.860;2024-02-21T05:14:24;98632.94;;;4.35;89.07
62057;BME280;48016;50.284;18.860;2024-02-21T05:16:50;98631.52;;;4.33;89.03
62057;BME280;48016;50.284;18.860;2024-02-21T05:19:16;98631.10;;;4.33;89.12
62057;BME280;48016;50.284;18.860;2024-02-21T05:21:42;98624.92;;;4.33;89.04
62057;BME280;48016;50.284;18.860;2024-02-21T05:24:08;98621.45;;;4.31;88.92
62057;BME280;48016;50.284;18.860;2024-02-21T05:26:34;98622.13;;;4.30;88.96
62057;BME280;48016;50.284;18.860;2024-02-21T05:29:00;98625.33;;;4.28;88.95
62057;BME280;48016;50.284;18.860;2024-02-21T05:31:42;98623.15;;;4.26;88.85
62057;BME280;48016;50.284;18.860;2024-02-21T05:34:08;98622.98;;;4.24;88.90
62057;BME280;48016;50.284;18.860;2024-02-21T05:36:34;98625.41;;;4.22;88.88
62057;BME280;48016;50.284;18.860;2024-02-21T05:39:00;98628.34;;;4.23;89.05
62057;BME280;48016;50.284;18.860;2024-02-21T05:41:26;98622.99;;;4.23;88.81
62057;BME280;48016;50.284;18.860;2024-02-21T05:43:52;98619.19;;;4.22;88.94
62057;BME280;48016;50.284;18.860;2024-02-21T05:46:21;98622.58;;;4.24;89.03
62057;BME280;48016;50.284;18.860;2024-02-21T05:48:47;98628.95;;;4.25;89.02
62057;BME280;48016;50.284;18.860;2024-02-21T05:51:12;98625.94;;;4.26;89.14
62057;BME280;48016;50.284;18.860;2024-02-21T05:53:38;98625.41;;;4.30;89.14
62057;BME280;48016;50.284;18.860;2024-02-21T05:56:13;98619.02;;;4.33;89.15
62057;BME280;48016;50.284;18.860;2024-02-21T05:58:39;98615.23;;;4.36;89.20
62057;BME280;48016;50.284;18.860;2024-02-21T06:01:06;98615.08;;;4.40;89.18
62057;BME280;48016;50.284;18.860;2024-02-21T06:03:35;98619.72;;;4.42;89.14
62057;BME280;48016;50.284;18.860;2024-02-21T06:06:02;98617.75;;;4.44;89.16
62057;BME280;48016;50.284;18.860;2024-02-21T06:08:28;98620.00;;;4.46;89.25
62057;BME280;48016;50.284;18.860;2024-02-21T06:10:54;98622.15;;;4.50;89.17
62057;BME280;48016;50.284;18.860;2024-02-21T06:13:21;98622.48;;;4.53;89.24
62057;BME280;48016;50.284;18.860;2024-02-21T06:15:47;98621.73;;;4.57;89.18
62057;BME280;48016;50.284;18.860;2024-02-21T06:18:15;98619.17;;;4.61;89.19
62057;BME280;48016;50.284;18.860;2024-02-21T06:20:40;98619.70;;;4.63;89.15
62057;BME280;48016;50.284;18.860;2024-02-21T06:23:07;98620.23;;;4.66;89.08
62057;BME280;48016;50.284;18.860;2024-02-21T06:25:33;98619.31;;;4.70;88.97
62057;BME280;48016;50.284;18.860;2024-02-21T06:27:59;98614.33;;;4.72;89.04
62057;BME280;48016;50.284;18.860;2024-02-21T06:30:25;98616.05;;;4.73;89.00
62057;BME280;48016;50.284;18.860;2024-02-21T06:32:52;98617.73;;;4.74;89.01
62057;BME280;48016;50.284;18.860;2024-02-21T06:35:22;98618.55;;;4.74;88.86
62057;BME280;48016;50.284;18.860;2024-02-21T06:37:50;98615.31;;;4.74;88.84
62057;BME280;48016;50.284;18.860;2024-02-21T06:40:18;98615.27;;;4.75;88.87
62057;BME280;48016;50.284;18.860;2024-02-21T06:42:43;98607.61;;;4.75;88.76
62057;BME280;48016;50.284;18.860;2024-02-21T06:45:09;98608.55;;;4.73;88.76
62057;BME280;48016;50.284;18.860;2024-02-21T06:47:35;98612.77;;;4.72;88.81
62057;BME280;48016;50.284;18.860;2024-02-21T06:50:01;98612.55;;;4.73;88.85
62057;BME280;48016;50.284;18.860;2024-02-21T06:52:28;98609.50;;;4.72;88.85
62057;BME280;48016;50.284;18.860;2024-02-21T06:54:54;98617.86;;;4.73;88.86
62057;BME280;48016;50.284;18.860;2024-02-21T06:57:19;98613.04;;;4.75;88.90
62057;BME280;48016;50.284;18.860;2024-02-21T06:59:45;98618.75;;;4.79;88.85
62057;BME280;48016;50.284;18.860;2024-02-21T07:02:11;98615.80;;;4.82;88.78
62057;BME280;48016;50.284;18.860;2024-02-21T07:04:37;98620.84;;;4.82;88.86
62057;BME280;48016;50.284;18.860;2024-02-21T07:07:03;98622.75;;;4.84;88.85
62057;BME280;48016;50.284;18.860;2024-02-21T07:09:29;98621.25;;;4.87;88.87
62057;BME280;48016;50.284;18.860;2024-02-21T07:12:00;98617.09;;;4.89;88.79
62057;BME280;48016;50.284;18.860;2024-02-21T07:14:29;98612.02;;;4.88;88.79
62057;BME280;48016;50.284;18.860;2024-02-21T07:16:55;98611.81;;;4.90;88.76
62057;BME280;48016;50.284;18.860;2024-02-21T07:19:22;98611.02;;;4.90;88.70
62057;BME280;48016;50.284;18.860;2024-02-21T07:21:48;98610.81;;;4.91;88.71
62057;BME280;48016;50.284;18.860;2024-02-21T07:24:14;98610.05;;;4.96;88.80
62057;BME280;48016;50.284;18.860;2024-02-21T07:26:44;98606.75;;;5.01;88.66
62057;BME280;48016;50.284;18.860;2024-02-21T07:29:10;98606.02;;;5.05;88.70
62057;BME280;48016;50.284;18.860;2024-02-21T07:31:42;98605.06;;;5.09;88.65
62057;BME280;48016;50.284;18.860;2024-02-21T07:34:08;98599.60;;;5.15;88.67
62057;BME280;48016;50.284;18.860;2024-02-21T07:36:35;98603.04;;;5.22;88.66
62057;BME280;48016;50.284;18.860;2024-02-21T07:39:01;98602.79;;;5.32;88.59
62057;BME280;48016;50.284;18.860;2024-02-21T07:41:27;98604.21;;;5.43;88.51
62057;BME280;48016;50.284;18.860;2024-02-21T07:43:56;98596.40;;;5.55;88.41
62057;BME280;48016;50.284;18.860;2024-02-21T07:46:22;98593.95;;;5.69;88.37
62057;BME280;48016;50.284;18.860;2024-02-21T07:48:48;98593.27;;;5.85;88.28
62057;BME280;48016;50.284;18.860;2024-02-21T07:51:14;98592.45;;;6.00;88.21
62057;BME280;48016;50.284;18.860;2024-02-21T07:53:42;98593.12;;;6.14;88.17
62057;BME280;48016;50.284;18.860;2024-02-21T07:56:11;98590.19;;;6.25;87.84
62057;BME280;48016;50.284;18.860;2024-02-21T07:58:37;98585.55;;;6.35;87.66
62057;BME280;48016;50.284;18.860;2024-02-21T08:01:03;98581.52;;;6.43;87.50
62057;BME280;48016;50.284;18.860;2024-02-21T08:03:29;98573.79;;;6.52;87.34
62057;BME280;48016;50.284;18.860;2024-02-21T08:05:55;98577.77;;;6.63;87.20
62057;BME280;48016;50.284;18.860;2024-02-21T08:08:21;98572.94;;;6.78;87.07
62057;BME280;48016;50.284;18.860;2024-02-21T08:10:48;98567.70;;;6.91;86.85
62057;BME280;48016;50.284;18.860;2024-02-21T08:13:16;98567.88;;;7.05;86.57
62057;BME280;48016;50.284;18.860;2024-02-21T08:15:42;98567.95;;;7.19;86.55
62057;BME280;48016;50.284;18.860;2024-02-21T08:18:08;98575.33;;;7.27;86.22
62057;BME280;48016;50.284;18.860;2024-02-21T08:20:34;98568.73;;;7.36;86.12
62057;BME280;48016;50.284;18.860;2024-02-21T08:23:01;98562.98;;;7.38;85.96
62057;BME280;48016;50.284;18.860;2024-02-21T08:25:27;98557.39;;;7.38;85.59
62057;BME280;48016;50.284;18.860;2024-02-21T08:27:58;98557.20;;;7.41;85.68
62057;BME280;48016;50.284;18.860;2024-02-21T08:30:24;98552.93;;;7.44;85.24
62057;BME280;48016;50.284;18.860;2024-02-21T08:32:50;98547.23;;;7.49;85.31
62057;BME280;48016;50.284;18.860;2024-02-21T08:35:16;98546.58;;;7.52;85.12
62057;BME280;48016;50.284;18.860;2024-02-21T08:37:45;98546.36;;;7.57;85.00
62057;BME280;48016;50.284;18.860;2024-02-21T08:40:14;98545.53;;;7.60;84.79
62057;BME280;48016;50.284;18.860;2024-02-21T08:42:43;98545.25;;;7.76;84.73
62057;BME280;48016;50.284;18.860;2024-02-21T08:45:10;98538.66;;;7.99;84.59
62057;BME280;48016;50.284;18.860;2024-02-21T08:47:42;98535.27;;;8.09;84.10
62057;BME280;48016;50.284;18.860;2024-02-21T08:50:08;98531.20;;;8.19;83.36
62057;BME280;48016;50.284;18.860;2024-02-21T08:52:35;98529.09;;;8.30;83.14
62057;BME280;48016;50.284;18.860;2024-02-21T08:55:01;98524.98;;;8.47;82.77
62057;BME280;48016;50.284;18.860;2024-02-21T08:57:27;98517.66;;;8.64;82.62
62057;BME280;48016;50.284;18.860;2024-02-21T08:59:53;98513.17;;;8.79;82.21
62057;BME280;48016;50.284;18.860;2024-02-21T09:02:19;98510.99;;;8.91;82.18
62057;BME280;48016;50.284;18.860;2024-02-21T09:04:45;98513.70;;;8.91;81.63
62057;BME280;48016;50.284;18.860;2024-02-21T09:07:11;98520.86;;;8.83;81.27
62057;BME280;48016;50.284;18.860;2024-02-21T09:09:37;98525.05;;;8.78;81.31
62057;BME280;48016;50.284;18.860;2024-02-21T09:12:06;98523.33;;;8.80;81.31
62057;BME280;48016;50.284;18.860;2024-02-21T09:14:33;98522.54;;;8.84;81.27
62057;BME280;48016;50.284;18.860;2024-02-21T09:16:59;98519.73;;;8.89;81.18
62057;BME280;48016;50.284;18.860;2024-02-21T09:19:25;98519.11;;;8.96;80.79
62057;BME280;48016;50.284;18.860;2024-02-21T09:21:51;98521.10;;;9.09;80.93
62057;BME280;48016;50.284;18.860;2024-02-21T09:24:17;98527.86;;;9.29;80.55
62057;BME280;48016;50.284;18.860;2024-02-21T09:26:43;98521.98;;;9.47;80.45
62057;BME280;48016;50.284;18.860;2024-02-21T09:29:09;98523.15;;;9.57;79.72
62057;BME280;48016;50.284;18.860;2024-02-21T09:31:35;98520.55;;;9.64;79.45
62057;BME280;48016;50.284;18.860;2024-02-21T09:34:02;98520.34;;;9.73;79.09
62057;BME280;48016;50.284;18.860;2024-02-21T09:36:27;98523.44;;;9.74;77.92
62057;BME280;48016;50.284;18.860;2024-02-21T09:38:54;98525.70;;;9.75;78.31
62057;BME280;48016;50.284;18.860;2024-02-21T09:41:26;98527.80;;;9.74;78.10
62057;BME280;48016;50.284;18.860;2024-02-21T09:43:56;98531.09;;;9.70;77.94
62057;BME280;48016;50.284;18.860;2024-02-21T09:47:00;98531.20;;;9.71;77.95
62057;BME280;48016;50.284;18.860;2024-02-21T09:49:34;98532.95;;;9.65;77.45
62057;BME280;48016;50.284;18.860;2024-02-21T09:52:06;98531.29;;;9.57;76.81
62057;BME280;48016;50.284;18.860;2024-02-21T09:54:34;98532.70;;;9.52;77.10
62057;BME280;48016;50.284;18.860;2024-02-21T09:57:01;98533.35;;;9.52;76.65
62057;BME280;48016;50.284;18.860;2024-02-21T09:59:32;98528.29;;;9.49;76.97
62057;BME280;48016;50.284;18.860;2024-02-21T10:01:58;98529.40;;;9.51;77.36
62057;BME280;48016;50.284;18.860;2024-02-21T10:04:27;98526.27;;;9.57;77.21
62057;BME280;48016;50.284;18.860;2024-02-21T10:06:54;98525.38;;;9.56;77.05
62057;BME280;48016;50.284;18.860;2024-02-21T10:09:23;98526.49;;;9.52;77.05
62057;BME280;48016;50.284;18.860;2024-02-21T10:11:50;98525.05;;;9.53;76.96
62057;BME280;48016;50.284;18.860;2024-02-21T10:14:16;98513.88;;;9.53;76.76
62057;BME280;48016;50.284;18.860;2024-02-21T10:16:46;98516.80;;;9.50;76.35
62057;BME280;48016;50.284;18.860;2024-02-21T10:19:17;98514.36;;;9.46;76.16
62057;BME280;48016;50.284;18.860;2024-02-21T10:21:43;98514.48;;;9.44;75.97
62057;BME280;48016;50.284;18.860;2024-02-21T10:24:12;98517.55;;;9.49;76.07
62057;BME280;48016;50.284;18.860;2024-02-21T10:26:38;98513.66;;;9.56;75.81
62057;BME280;48016;50.284;18.860;2024-02-21T10:29:04;98516.55;;;9.60;75.50
62057;BME280;48016;50.284;18.860;2024-02-21T10:31:30;98513.69;;;9.67;75.40
62057;BME280;48016;50.284;18.860;2024-02-21T10:33:57;98514.88;;;9.80;75.74
62057;BME280;48016;50.284;18.860;2024-02-21T10:36:24;98510.27;;;9.91;75.56
62057;BME280;48016;50.284;18.860;2024-02-21T10:38:51;98509.52;;;10.01;75.68
62057;BME280;48016;50.284;18.860;2024-02-21T10:41:20;98504.08;;;10.03;75.35
62057;BME280;48016;50.284;18.860;2024-02-21T10:43:50;98498.17;;;10.05;73.96
62057;BME280;48016;50.284;18.860;2024-02-21T10:46:20;98499.52;;;10.05;73.72
62057;BME280;48016;50.284;18.860;2024-02-21T10:48:47;98499.10;;;10.03;74.20
62057;BME280;48016;50.284;18.860;2024-02-21T10:51:16;98493.45;;;10.05;73.89
62057;BME280;48016;50.284;18.860;2024-02-21T10:54:02;98492.91;;;10.05;74.20
62057;BME280;48016;50.284;18.860;2024-02-21T10:56:32;98484.75;;;10.00;73.85
62057;BME280;48016;50.284;18.860;2024-02-21T10:59:06;98480.06;;;9.97;73.86
62057;BME280;48016;50.284;18.860;2024-02-21T11:01:32;98483.02;;;9.92;73.45
62057;BME280;48016;50.284;18.860;2024-02-21T11:04:08;98481.30;;;9.87;73.51
62057;BME280;48016;50.284;18.860;2024-02-21T11:06:36;98478.69;;;9.85;73.37
62057;BME280;48016;50.284;18.860;2024-02-21T11:09:04;98474.42;;;9.86;73.06
62057;BME280;48016;50.284;18.860;2024-02-21T11:11:41;98460.59;;;9.86;73.23
62057;BME280;48016;50.284;18.860;2024-02-21T11:14:09;98454.75;;;9.82;72.66
62057;BME280;48016;50.284;18.860;2024-02-21T11:16:36;98452.22;;;9.79;72.56
62057;BME280;48016;50.284;18.860;2024-02-21T11:19:08;98451.55;;;9.72;72.61
62057;BME280;48016;50.284;18.860;2024-02-21T11:21:38;98445.09;;;9.68;72.65
62057;BME280;48016;50.284;18.860;2024-02-21T11:24:04;98439.98;;;9.62;72.58
62057;BME280;48016;50.284;18.860;2024-02-21T11:26:31;98441.09;;;9.57;72.42
62057;BME280;48016;50.284;18.860;2024-02-21T11:29:01;98440.43;;;9.47;72.33
62057;BME280;48016;50.284;18.860;2024-02-21T11:31:40;98441.33;;;9.40;72.36
62057;BME280;48016;50.284;18.860;2024-02-21T11:34:16;98441.27;;;9.37;72.41
62057;BME280;48016;50.284;18.860;2024-02-21T11:36:49;98437.40;;;9.31;72.06
62057;BME280;48016;50.284;18.860;2024-02-21T11:39:19;98434.69;;;9.24;72.30
62057;BME280;48016;50.284;18.860;2024-02-21T11:41:47;98431.79;;;9.22;72.39
62057;BME280;48016;50.284;18.860;2024-02-21T11:44:13;98427.59;;;9.20;72.70
62057;BME280;48016;50.284;18.860;2024-02-21T11:46:39;98430.91;;;9.16;72.95
62057;BME280;48016;50.284;18.860;2024-02-21T11:49:06;98426.29;;;9.13;73.00
62057;BME280;48016;50.284;18.860;2024-02-21T11:51:32;98422.37;;;9.08;73.19
62057;BME280;48016;50.284;18.860;2024-02-21T11:53:57;98425.23;;;8.99;72.93
62057;BME280;48016;50.284;18.860;2024-02-21T11:56:23;98421.24;;;8.94;73.18
62057;BME280;48016;50.284;18.860;2024-02-21T11:58:49;98418.36;;;8.89;73.39
62057;BME280;48016;50.284;18.860;2024-02-21T12:01:15;98418.93;;;8.88;73.57
62057;BME280;48016;50.284;18.860;2024-02-21T12:03:42;98416.89;;;8.88;73.75
62057;BME280;48016;50.284;18.860;2024-02-21T12:06:16;98418.27;;;8.85;73.60
62057;BME280;48016;50.284;18.860;2024-02-21T12:08:46;98421.34;;;8.78;73.93
62057;BME280;48016;50.284;18.860;2024-02-21T12:11:22;98417.71;;;8.73;74.26
62057;BME280;48016;50.284;18.860;2024-02-21T12:14:04;98421.85;;;8.66;74.40
62057;BME280;48016;50.284;18.860;2024-02-21T12:16:34;98420.25;;;8.59;74.49
62057;BME280;48016;50.284;18.860;2024-02-21T12:19:03;98421.61;;;8.54;74.63
62057;BME280;48016;50.284;18.860;2024-02-21T12:21:33;98421.37;;;8.52;74.95
62057;BME280;48016;50.284;18.860;2024-02-21T12:24:15;98422.34;;;8.50;75.17
62057;BME280;48016;50.284;18.860;2024-02-21T12:26:41;98420.00;;;8.46;75.29
62057;BME280;48016;50.284;18.860;2024-02-21T12:29:08;98415.74;;;8.44;75.58
62057;BME280;48016;50.284;18.860;2024-02-21T12:31:38;98415.67;;;8.43;75.89
62057;BME280;48016;50.284;18.860;2024-02-21T12:34:04;98407.57;;;8.42;75.79
62057;BME280;48016;50.284;18.860;2024-02-21T12:36:36;98401.64;;;8.40;75.75
62057;BME280;48016;50.284;18.860;2024-02-21T12:39:06;98399.23;;;8.37;76.02
62057;BME280;48016;50.284;18.860;2024-02-21T12:41:32;98397.83;;;8.36;76.31
62057;BME280;48016;50.284;18.860;2024-02-21T12:43:58;98402.12;;;8.33;76.70
62057;BME280;48016;50.284;18.860;2024-02-21T12:46:24;98403.46;;;8.30;76.95
62057;BME280;48016;50.284;18.860;2024-02-21T12:48:50;98396.48;;;8.33;77.08
62057;BME280;48016;50.284;18.860;2024-02-21T12:51:16;98394.83;;;8.37;77.23
62057;BME280;48016;50.284;18.860;2024-02-21T12:53:49;98397.24;;;8.43;77.16
62057;BME280;48016;50.284;18.860;2024-02-21T12:56:15;98394.46;;;8.47;77.24
62057;BME280;48016;50.284;18.860;2024-02-21T12:58:42;98389.48;;;8.49;77.22
62057;BME280;48016;50.284;18.860;2024-02-21T13:01:08;98377.06;;;8.57;77.18